Time;durP1;ratioP1;P1;durP2;ratioP2;P2;SDS_P1;SDS_P2;PMS_P1;PMS_P2;Temp;Humidity;BMP_temperature;BMP_pressure;BME280_temperature;BME280_humidity;BME280_pressure;Samples;Min_cycle;Max_cycle;Signal;HPM_P1;HPM_P2
2021/03/14 00:01:17;;;;;;;3.92;1.30;;;4.30;99.90;;;;;;5049289;28;20557;-73
2021/03/14 00:03:43;;;;;;;3.45;1.55;;;4.30;99.90;;;;;;5048601;28;20029;-73
2021/03/14 00:06:09;;;;;;;1.90;1.00;;;4.30;99.90;;;;;;5051727;28;20112;-74
2021/03/14 00:08:34;;;;;;;3.58;1.25;;;4.30;99.90;;;;;;5052001;28;20514;-74
2021/03/14 00:11:03;;;;;;;1.98;1.05;;;4.30;99.90;;;;;;5044277;28;20388;-73
2021/03/14 00:13:35;;;;;;;6.15;1.40;;;4.30;99.90;;;;;;5032577;28;20587;-73
2021/03/14 00:16:02;;;;;;;3.03;1.00;;;4.30;99.90;;;;;;5032307;28;20040;-73
2021/03/14 00:18:30;;;;;;;3.55;1.15;;;4.20;99.90;;;;;;5031862;28;20127;-73
2021/03/14 00:20:56;;;;;;;2.60;1.40;;;4.20;99.90;;;;;;5031587;28;20037;-73
2021/03/14 00:23:23;;;;;;;1.67;0.85;;;4.20;99.90;;;;;;5032105;28;20046;-73
2021/03/14 00:25:48;;;;;;;3.42;0.90;;;4.20;99.90;;;;;;5064062;28;20118;-73
2021/03/14 00:28:16;;;;;;;3.15;0.90;;;4.20;99.90;;;;;;5031430;28;20491;-73
2021/03/14 00:30:42;;;;;;;4.78;1.17;;;4.20;99.90;;;;;;5031478;28;20095;-73
2021/03/14 00:33:08;;;;;;;2.58;1.00;;;4.20;99.90;;;;;;5032209;28;20132;-73
2021/03/14 00:35:34;;;;;;;2.95;1.10;;;4.20;99.90;;;;;;5032051;28;20128;-73
2021/03/14 00:38:00;;;;;;;6.43;1.02;;;4.20;99.90;;;;;;5031147;28;20137;-74
2021/03/14 00:40:26;;;;;;;3.53;0.73;;;4.20;99.90;;;;;;5031539;28;20037;-73
2021/03/14 00:42:54;;;;;;;3.10;0.80;;;4.20;99.90;;;;;;5031821;28;20037;-73
2021/03/14 00:45:20;;;;;;;3.78;0.70;;;4.10;99.90;;;;;;5031805;28;20064;-74
2021/03/14 00:47:45;;;;;;;3.10;0.90;;;4.20;99.90;;;;;;5031271;28;20093;-73
2021/03/14 00:50:12;;;;;;;3.80;0.70;;;4.10;99.90;;;;;;5031731;28;20110;-74
2021/03/14 00:52:38;;;;;;;3.40;0.70;;;4.20;99.90;;;;;;5062783;28;20124;-74
2021/03/14 00:55:05;;;;;;;1.23;0.70;;;4.20;99.90;;;;;;5063396;28;20237;-73
2021/03/14 00:57:31;;;;;;;1.27;0.80;;;4.20;99.90;;;;;;5031056;28;20025;-73
2021/03/14 00:59:58;;;;;;;2.05;0.52;;;4.20;99.90;;;;;;5075371;28;20029;-74
2021/03/14 01:02:24;;;;;;;2.67;0.82;;;4.20;99.90;;;;;;5048465;28;20087;-74
2021/03/14 01:04:49;;;;;;;0.80;0.52;;;4.10;99.90;;;;;;5050927;28;20029;-73
2021/03/14 01:07:15;;;;;;;4.78;0.60;;;4.10;99.90;;;;;;5050299;28;20546;-73
2021/03/14 01:09:41;;;;;;;1.98;0.50;;;4.10;99.90;;;;;;5082842;28;20029;-73
2021/03/14 01:12:08;;;;;;;2.83;0.50;;;4.10;99.90;;;;;;5050642;28;20052;-73
2021/03/14 01:14:49;;;;;;;3.25;0.60;;;4.10;99.90;;;;;;5051244;28;20024;-73
2021/03/14 01:17:23;;;;;;;1.48;0.75;;;4.10;99.90;;;;;;5082708;28;20048;-73
2021/03/14 01:19:50;;;;;;;3.08;0.90;;;4.10;99.90;;;;;;5050805;28;20037;-74
2021/03/14 01:22:15;;;;;;;3.25;0.77;;;4.10;99.90;;;;;;5050332;28;20369;-74
2021/03/14 01:24:41;;;;;;;3.08;0.93;;;4.10;99.90;;;;;;5050647;28;20079;-73
2021/03/14 01:27:07;;;;;;;0.70;0.68;;;4.10;99.90;;;;;;5050200;28;20028;-74
2021/03/14 01:29:32;;;;;;;1.67;0.80;;;4.10;99.90;;;;;;5050846;28;20040;-74
2021/03/14 01:31:58;;;;;;;0.90;0.65;;;4.10;99.90;;;;;;5050333;28;20479;-74
2021/03/14 01:34:24;;;;;;;2.38;1.00;;;4.10;99.90;;;;;;5049736;28;20033;-74
2021/03/14 01:36:54;;;;;;;3.72;0.70;;;4.00;99.90;;;;;;5047849;28;20040;-73
2021/03/14 01:39:20;;;;;;;3.25;0.63;;;4.00;99.90;;;;;;5050215;28;20025;-74
2021/03/14 01:41:46;;;;;;;1.13;0.47;;;3.90;99.90;;;;;;5047613;28;20031;-74
2021/03/14 01:44:12;;;;;;;4.32;0.60;;;3.80;99.90;;;;;;5050580;28;20025;-74
2021/03/14 01:46:37;;;;;;;1.55;0.75;;;3.80;99.90;;;;;;5049786;28;20445;-74
2021/03/14 01:49:03;;;;;;;3.78;0.63;;;3.80;99.90;;;;;;5050518;28;20875;-74
2021/03/14 01:51:32;;;;;;;2.08;0.43;;;3.70;99.90;;;;;;5049817;28;20025;-73
2021/03/14 01:53:58;;;;;;;0.80;0.63;;;3.70;99.90;;;;;;5048717;28;20599;-74
2021/03/14 01:56:23;;;;;;;3.63;0.47;;;3.70;99.90;;;;;;5050296;28;20037;-73
2021/03/14 01:58:50;;;;;;;0.57;0.45;;;3.70;99.90;;;;;;5048384;28;20483;-73
2021/03/14 02:01:16;;;;;;;1.98;0.65;;;3.70;99.90;;;;;;5047083;28;20053;-72
2021/03/14 02:03:42;;;;;;;1.55;0.30;;;3.60;99.90;;;;;;5049401;28;20492;-73
2021/03/14 02:06:08;;;;;;;1.48;0.70;;;3.60;99.90;;;;;;5049841;28;20037;-71
2021/03/14 02:08:33;;;;;;;0.60;0.40;;;3.60;99.90;;;;;;5049860;28;20136;-74
2021/03/14 02:10:59;;;;;;;0.35;0.20;;;3.60;99.90;;;;;;5046398;28;20032;-74
2021/03/14 02:13:39;;;;;;;1.17;0.52;;;3.60;99.90;;;;;;5050036;28;20040;-74
2021/03/14 02:16:18;;;;;;;0.88;0.38;;;3.50;99.90;;;;;;5048531;28;20699;-74
2021/03/14 02:18:48;;;;;;;2.58;0.50;;;3.50;99.90;;;;;;5050022;28;20514;-73
2021/03/14 02:21:14;;;;;;;4.32;0.40;;;3.50;99.90;;;;;;5049698;28;20116;-74
2021/03/14 02:24:12;;;;;;;1.83;0.45;;;3.50;99.90;;;;;;5082319;28;20029;-74
2021/03/14 02:26:43;;;;;;;1.13;0.35;;;3.50;99.90;;;;;;5047415;28;20407;-74
2021/03/14 02:29:16;;;;;;;0.50;0.38;;;3.50;99.90;;;;;;5050131;28;20025;-74
2021/03/14 02:31:44;;;;;;;1.45;0.35;;;3.50;99.90;;;;;;5049707;28;20079;-74
2021/03/14 02:34:12;;;;;;;0.93;0.30;;;3.50;99.90;;;;;;5050311;28;20033;-74
2021/03/14 02:36:42;;;;;;;4.50;0.68;;;3.40;99.90;;;;;;5049105;28;20271;-73
2021/03/14 02:39:11;;;;;;;3.80;0.70;;;3.40;99.90;;;;;;5049825;28;20483;-74
2021/03/14 02:41:38;;;;;;;1.08;0.60;;;3.40;99.90;;;;;;5046896;28;20751;-74
2021/03/14 02:44:05;;;;;;;0.30;0.20;;;3.40;99.90;;;;;;5050202;28;20112;-74
2021/03/14 02:46:31;;;;;;;0.88;0.35;;;3.30;99.90;;;;;;5049291;28;20398;-73
2021/03/14 02:48:58;;;;;;;1.45;0.47;;;3.30;99.90;;;;;;5049923;28;20128;-73
2021/03/14 02:51:26;;;;;;;2.30;0.40;;;3.30;99.90;;;;;;5049103;28;20052;-74
2021/03/14 02:53:52;;;;;;;2.05;0.70;;;3.20;99.90;;;;;;5049823;28;20029;-73
2021/03/14 02:56:18;;;;;;;0.68;0.30;;;3.20;99.90;;;;;;5048238;28;20036;-73
2021/03/14 02:58:45;;;;;;;1.27;0.30;;;3.20;99.90;;;;;;5049739;28;20037;-73
2021/03/14 03:01:12;;;;;;;0.85;0.43;;;3.30;99.90;;;;;;5049160;28;20081;-73
2021/03/14 03:03:39;;;;;;;1.20;0.40;;;3.30;99.90;;;;;;5049679;28;20036;-73
2021/03/14 03:06:05;;;;;;;2.78;0.40;;;3.30;99.90;;;;;;5049645;28;20037;-73
2021/03/14 03:08:32;;;;;;;1.80;0.77;;;3.30;99.90;;;;;;5053088;28;20031;-73
2021/03/14 03:11:06;;;;;;;3.33;0.70;;;3.30;99.90;;;;;;5052783;28;20123;-73
2021/03/14 03:13:34;;;;;;;0.30;0.30;;;3.40;99.90;;;;;;5053527;28;20120;-73
2021/03/14 03:16:03;;;;;;;0.47;0.22;;;3.40;99.90;;;;;;5053467;28;20056;-74
2021/03/14 03:18:29;;;;;;;2.75;0.77;;;3.40;99.90;;;;;;5052960;28;20060;-73
2021/03/14 03:20:55;;;;;;;0.47;0.40;;;3.40;99.90;;;;;;5034885;28;20072;-73
2021/03/14 03:23:21;;;;;;;2.85;0.50;;;3.40;99.90;;;;;;5053196;28;20068;-74
2021/03/14 03:25:47;;;;;;;1.23;0.50;;;3.40;99.90;;;;;;5052966;28;20086;-74
2021/03/14 03:28:14;;;;;;;1.90;0.32;;;3.40;99.90;;;;;;5050273;28;20052;-73
2021/03/14 03:30:41;;;;;;;0.52;0.30;;;3.40;99.90;;;;;;5052483;28;20074;-72
2021/03/14 03:33:07;;;;;;;1.38;0.32;;;3.40;99.90;;;;;;5053181;28;20033;-73
2021/03/14 03:35:34;;;;;;;0.75;0.30;;;3.40;99.90;;;;;;5051735;28;20423;-73
2021/03/14 03:38:00;;;;;;;2.90;0.55;;;3.40;99.90;;;;;;5052535;28;20468;-73
2021/03/14 03:40:28;;;;;;;0.65;0.35;;;3.50;99.90;;;;;;5050106;28;20037;-72
2021/03/14 03:43:32;;;;;;;1.50;0.40;;;3.50;99.90;;;;;;5052694;28;20726;-73
2021/03/14 03:46:01;;;;;;;1.00;0.47;;;3.40;99.90;;;;;;5049845;28;20037;-74
2021/03/14 03:48:32;;;;;;;1.17;0.77;;;3.40;99.90;;;;;;5052271;28;20677;-73
2021/03/14 03:50:59;;;;;;;1.20;0.47;;;3.50;99.90;;;;;;5052088;28;20025;-73
2021/03/14 03:53:27;;;;;;;0.40;0.35;;;3.50;99.90;;;;;;5052622;28;20041;-73
2021/03/14 03:55:54;;;;;;;0.75;0.30;;;3.40;99.90;;;;;;5052554;28;20033;-74
2021/03/14 03:58:22;;;;;;;3.08;0.30;;;3.40;99.90;;;;;;5052174;28;20036;-73
2021/03/14 04:00:48;;;;;;;3.50;0.70;;;3.40;99.90;;;;;;5052077;28;20163;-73
2021/03/14 04:03:14;;;;;;;0.63;0.47;;;3.40;99.90;;;;;;5052390;28;20132;-74
2021/03/14 04:05:40;;;;;;;0.70;0.40;;;3.40;99.90;;;;;;5052382;28;20456;-74
2021/03/14 04:08:07;;;;;;;3.13;0.40;;;3.40;99.90;;;;;;5050886;28;20139;-73
2021/03/14 04:10:33;;;;;;;1.63;0.50;;;3.30;99.90;;;;;;5051469;28;20029;-73
2021/03/14 04:13:00;;;;;;;2.15;0.60;;;3.30;99.90;;;;;;5052501;28;20501;-73
2021/03/14 04:15:30;;;;;;;0.60;0.60;;;3.30;99.90;;;;;;5052450;28;20484;-73
2021/03/14 04:17:56;;;;;;;0.40;0.40;;;3.30;99.90;;;;;;5051306;28;20037;-73
2021/03/14 04:20:29;;;;;;;1.65;0.57;;;3.30;99.90;;;;;;5052245;28;20044;-73
2021/03/14 04:22:58;;;;;;;1.25;0.60;;;3.30;99.90;;;;;;5051818;28;20044;-73
2021/03/14 04:25:25;;;;;;;1.42;0.77;;;3.30;99.90;;;;;;5052156;28;20102;-73
2021/03/14 04:27:53;;;;;;;2.63;0.45;;;3.20;99.90;;;;;;5051596;28;20053;-74
2021/03/14 04:30:21;;;;;;;1.85;0.50;;;3.20;99.90;;;;;;5052136;28;20037;-73
2021/03/14 04:32:48;;;;;;;0.98;0.60;;;3.10;99.90;;;;;;5051708;28;20032;-73
2021/03/14 04:35:14;;;;;;;1.67;0.73;;;3.10;99.90;;;;;;5051942;28;20120;-74
2021/03/14 04:37:41;;;;;;;2.10;0.57;;;3.10;99.90;;;;;;5051420;28;20064;-73
2021/03/14 04:40:12;;;;;;;0.65;0.60;;;3.10;99.90;;;;;;5051870;28;20037;-73
2021/03/14 04:42:42;;;;;;;4.72;0.65;;;3.10;99.90;;;;;;5050352;28;20041;-73
2021/03/14 04:45:09;;;;;;;1.55;0.73;;;3.00;99.90;;;;;;5036167;28;20040;-74
2021/03/14 04:47:35;;;;;;;0.95;0.77;;;2.90;99.90;;;;;;5031224;28;20043;-73
2021/03/14 04:50:03;;;;;;;1.45;0.68;;;2.90;99.90;;;;;;5031894;28;20033;-74
2021/03/14 04:52:29;;;;;;;4.38;0.88;;;2.90;99.90;;;;;;5030988;28;20148;-73
2021/03/14 04:54:55;;;;;;;4.53;0.80;;;2.90;99.90;;;;;;5031822;28;20507;-73
2021/03/14 04:57:21;;;;;;;4.25;0.50;;;2.90;99.90;;;;;;5031249;28;20030;-74
2021/03/14 04:59:49;;;;;;;1.30;0.57;;;2.90;99.90;;;;;;5031777;28;20160;-73
2021/03/14 05:02:15;;;;;;;1.48;1.02;;;2.90;99.90;;;;;;5040600;28;20052;-74
2021/03/14 05:04:43;;;;;;;1.40;0.65;;;2.90;99.90;;;;;;5051341;28;20025;-74
2021/03/14 05:07:11;;;;;;;1.50;0.70;;;2.90;99.90;;;;;;5051084;28;20087;-74
2021/03/14 05:09:38;;;;;;;1.08;0.80;;;2.90;99.90;;;;;;5051297;28;20408;-73
2021/03/14 05:12:05;;;;;;;3.30;0.90;;;2.90;99.90;;;;;;5050811;28;20446;-74
2021/03/14 05:14:33;;;;;;;1.25;0.73;;;2.90;99.90;;;;;;5051554;28;20055;-73
2021/03/14 05:16:59;;;;;;;3.35;0.57;;;2.90;99.90;;;;;;5050701;28;20022;-74
2021/03/14 05:19:25;;;;;;;3.40;0.90;;;2.80;99.90;;;;;;5051309;28;20033;-74
2021/03/14 05:21:51;;;;;;;2.33;0.80;;;2.80;99.90;;;;;;5050496;28;20042;-73
2021/03/14 05:24:17;;;;;;;2.25;0.70;;;2.80;99.90;;;;;;5050113;28;20068;-73
2021/03/14 05:26:47;;;;;;;0.68;0.63;;;2.80;99.90;;;;;;5049261;28;20076;-74
2021/03/14 05:29:13;;;;;;;1.42;0.93;;;2.80;99.90;;;;;;5050531;28;20033;-73
2021/03/14 05:31:39;;;;;;;4.13;1.25;;;2.80;99.90;;;;;;5050360;28;20567;-73
2021/03/14 05:34:07;;;;;;;0.95;0.80;;;2.90;99.90;;;;;;5051098;28;20079;-73
2021/03/14 05:36:34;;;;;;;2.55;1.00;;;2.80;99.90;;;;;;5050607;28;20037;-73
2021/03/14 05:39:01;;;;;;;3.70;0.80;;;2.80;99.90;;;;;;5050893;28;20033;-74
2021/03/14 05:41:27;;;;;;;4.25;0.77;;;2.80;99.90;;;;;;5050459;28;20038;-73
2021/03/14 05:43:53;;;;;;;1.50;0.70;;;2.90;99.90;;;;;;5051029;28;20094;-73
2021/03/14 05:46:20;;;;;;;4.32;1.13;;;2.90;99.90;;;;;;5044960;28;20035;-73
2021/03/14 05:48:46;;;;;;;1.05;0.95;;;3.00;99.90;;;;;;5050655;28;20112;-74
2021/03/14 05:51:26;;;;;;;2.35;1.15;;;3.00;99.90;;;;;;5049533;28;20028;-73
2021/03/14 05:53:53;;;;;;;1.50;1.40;;;3.00;99.90;;;;;;5050736;28;20025;-73
2021/03/14 05:56:20;;;;;;;3.75;0.80;;;3.00;99.90;;;;;;5050193;28;20484;-73
2021/03/14 05:58:46;;;;;;;1.50;0.77;;;3.00;99.90;;;;;;5050664;28;20042;-74
2021/03/14 06:01:16;;;;;;;2.33;0.93;;;3.00;99.90;;;;;;5049995;28;20047;-74
2021/03/14 06:03:43;;;;;;;2.00;0.93;;;3.10;99.90;;;;;;5050250;28;20043;-74
2021/03/14 06:06:14;;;;;;;1.63;1.05;;;3.10;99.90;;;;;;5050170;28;20491;-74
2021/03/14 06:08:41;;;;;;;2.00;0.68;;;3.00;99.90;;;;;;5050492;28;20091;-74
2021/03/14 06:11:08;;;;;;;2.13;0.95;;;3.10;99.90;;;;;;5050003;28;20021;-74
2021/03/14 06:13:34;;;;;;;3.30;0.95;;;3.10;99.90;;;;;;5050649;28;20119;-72
2021/03/14 06:16:00;;;;;;;1.17;0.80;;;3.00;99.90;;;;;;5050550;28;20041;-74
2021/03/14 06:18:27;;;;;;;1.73;0.80;;;3.00;99.90;;;;;;5049825;28;20037;-74
2021/03/14 06:20:53;;;;;;;2.45;0.80;;;3.00;99.90;;;;;;5049778;28;20037;-74
2021/03/14 06:23:20;;;;;;;2.25;0.90;;;3.10;99.90;;;;;;5050568;28;20033;-74
2021/03/14 06:25:48;;;;;;;1.67;0.82;;;3.10;99.90;;;;;;5048984;28;20041;-73
2021/03/14 06:28:15;;;;;;;6.05;1.92;;;3.30;99.90;;;;;;5048713;28;20099;-73
2021/03/14 06:30:41;;;;;;;3.28;1.40;;;3.40;99.90;;;;;;5050054;28;20104;-74
2021/03/14 06:33:15;;;;;;;3.47;1.42;;;3.50;99.90;;;;;;5050369;28;20025;-74
2021/03/14 06:35:53;;;;;;;2.65;0.93;;;3.60;99.90;;;;;;5049425;28;20044;-74
2021/03/14 06:38:31;;;;;;;2.60;1.05;;;3.60;99.90;;;;;;5049591;28;20025;-74
2021/03/14 06:41:02;;;;;;;0.80;0.75;;;3.60;99.90;;;;;;5051507;28;20558;-73
2021/03/14 06:43:40;;;;;;;3.55;1.45;;;3.70;99.90;;;;;;5054487;28;20021;-74
2021/03/14 06:46:20;;;;;;;1.58;1.23;;;3.70;99.90;;;;;;5052070;28;20032;-74
2021/03/14 06:48:46;;;;;;;4.18;1.10;;;3.80;99.90;;;;;;5054531;28;20028;-74
2021/03/14 06:51:31;;;;;;;2.33;1.40;;;3.90;99.90;;;;;;5053493;28;20687;-73
2021/03/14 06:54:13;;;;;;;1.85;1.00;;;4.00;99.90;;;;;;5054284;28;20071;-74
2021/03/14 06:56:39;;;;;;;2.47;1.17;;;4.10;99.90;;;;;;5053486;28;20500;-74
2021/03/14 06:59:18;;;;;;;1.08;1.00;;;4.10;99.90;;;;;;5048963;28;20128;-74
2021/03/14 07:01:57;;;;;;;2.03;1.20;;;4.10;99.90;;;;;;5048051;28;20459;-74
2021/03/14 07:04:34;;;;;;;2.90;1.02;;;4.10;99.90;;;;;;5052286;28;20051;-74
2021/03/14 07:07:01;;;;;;;2.00;1.25;;;4.00;99.90;;;;;;5047928;28;20039;-74
2021/03/14 07:09:26;;;;;;;2.08;1.25;;;4.00;99.90;;;;;;5050239;28;20021;-74
2021/03/14 07:11:53;;;;;;;1.63;0.70;;;3.90;99.90;;;;;;5052858;28;20033;-74
2021/03/14 07:14:20;;;;;;;2.42;0.93;;;4.00;99.90;;;;;;5053677;28;20029;-73
2021/03/14 07:16:58;;;;;;;0.93;0.90;;;4.30;99.90;;;;;;5053087;28;20550;-74
2021/03/14 07:19:30;;;;;;;1.10;1.00;;;4.80;99.90;;;;;;5053888;28;20103;-74
2021/03/14 07:22:06;;;;;;;2.83;1.10;;;5.40;99.90;;;;;;5052975;28;20031;-74
2021/03/14 07:24:33;;;;;;;2.38;0.90;;;6.00;99.90;;;;;;5053672;28;20044;-74
2021/03/14 07:27:00;;;;;;;2.47;0.80;;;6.50;99.90;;;;;;5053234;28;20033;-74
2021/03/14 07:29:27;;;;;;;2.60;0.75;;;6.80;99.90;;;;;;5045339;28;20033;-72
2021/03/14 07:31:54;;;;;;;3.33;0.82;;;7.20;99.90;;;;;;5046583;28;20029;-74
2021/03/14 07:34:21;;;;;;;0.90;0.80;;;7.60;99.90;;;;;;5050392;28;20029;-74
2021/03/14 07:36:47;;;;;;;2.35;0.80;;;7.90;99.90;;;;;;5051226;28;20028;-74
2021/03/14 07:39:14;;;;;;;3.33;0.70;;;8.00;99.90;;;;;;5051382;28;20564;-74
2021/03/14 07:41:40;;;;;;;3.38;1.00;;;8.10;99.90;;;;;;5044335;28;20384;-74
2021/03/14 07:44:07;;;;;;;1.42;0.85;;;8.20;99.90;;;;;;5046485;28;20124;-73
2021/03/14 07:46:33;;;;;;;1.40;0.90;;;8.20;99.90;;;;;;5045122;28;20048;-74
2021/03/14 07:49:01;;;;;;;0.80;0.68;;;8.50;99.90;;;;;;5050270;28;20033;-74
2021/03/14 07:51:28;;;;;;;1.00;0.57;;;8.80;99.90;;;;;;5050349;28;20029;-73
2021/03/14 07:53:58;;;;;;;1.85;0.77;;;8.90;99.90;;;;;;5050633;28;20029;-74
2021/03/14 07:56:33;;;;;;;2.88;0.52;;;9.00;99.90;;;;;;5044584;28;20044;-74
2021/03/14 07:58:59;;;;;;;3.85;1.42;;;9.10;99.90;;;;;;5050276;28;20086;-74
2021/03/14 08:01:31;;;;;;;1.10;1.00;;;9.10;99.90;;;;;;5050063;28;20041;-74
2021/03/14 08:03:57;;;;;;;1.15;1.00;;;9.10;99.90;;;;;;5052100;28;20036;-74
2021/03/14 08:06:44;;;;;;;3.03;1.20;;;9.00;99.90;;;;;;5051691;28;20032;-74
2021/03/14 08:09:10;;;;;;;2.85;0.88;;;8.90;99.90;;;;;;5052282;28;20468;-74
2021/03/14 08:11:36;;;;;;;2.97;1.08;;;8.50;99.90;;;;;;5083333;28;20036;-73
2021/03/14 08:14:02;;;;;;;5.40;1.10;;;8.50;99.90;;;;;;5052273;28;20070;-74
2021/03/14 08:16:28;;;;;;;1.58;1.10;;;8.60;99.90;;;;;;5050696;28;20040;-74
2021/03/14 08:19:11;;;;;;;1.50;1.40;;;8.80;99.90;;;;;;5049176;28;20171;-74
2021/03/14 08:21:40;;;;;;;1.45;1.00;;;8.60;99.90;;;;;;5051440;28;20029;-74
2021/03/14 08:24:07;;;;;;;1.00;0.95;;;8.30;99.90;;;;;;5050570;28;20533;-74
2021/03/14 08:26:36;;;;;;;1.45;1.20;;;8.00;99.90;;;;;;5066540;28;20495;-73
2021/03/14 08:29:09;;;;;;;1.65;1.10;;;7.70;99.90;;;;;;5050064;28;20482;-75
2021/03/14 08:31:42;;;;;;;1.45;1.27;;;7.40;99.90;;;;;;5044037;28;20022;-74
2021/03/14 08:34:40;;;;;;;4.00;1.25;;;7.20;99.90;;;;;;5058544;28;20025;-75
2021/03/14 08:37:27;;;;;;;2.33;1.05;;;7.10;99.90;;;;;;5042019;28;20036;-74
2021/03/14 08:40:04;;;;;;;2.70;1.15;;;7.00;99.90;;;;;;5079539;28;20052;-74
2021/03/14 08:42:55;;;;;;;3.92;0.90;;;7.00;99.90;;;;;;5078540;28;20033;-73
2021/03/14 08:45:27;;;;;;;1.20;0.80;;;7.00;99.90;;;;;;5041864;28;20087;-74
2021/03/14 08:48:15;;;;;;;5.15;1.40;;;6.90;99.90;;;;;;5076766;28;20045;-74
2021/03/14 08:50:45;;;;;;;1.58;1.05;;;6.80;99.90;;;;;;5079504;28;20029;-75
2021/03/14 08:53:16;;;;;;;2.90;1.27;;;6.70;99.90;;;;;;5038879;28;20119;-74
2021/03/14 08:55:51;;;;;;;4.07;1.15;;;6.60;99.90;;;;;;5059202;28;20037;-74
2021/03/14 08:58:19;;;;;;;1.83;1.10;;;6.50;99.90;;;;;;5025419;28;20040;-74
2021/03/14 09:01:05;;;;;;;1.10;1.00;;;6.50;99.90;;;;;;5077035;28;20025;-75
2021/03/14 09:03:43;;;;;;;2.70;1.15;;;6.50;99.90;;;;;;5076576;28;20048;-75
2021/03/14 09:06:22;;;;;;;1.95;1.08;;;6.50;99.90;;;;;;5061068;28;20032;-74
2021/03/14 09:08:55;;;;;;;2.53;1.00;;;6.40;99.90;;;;;;5045782;28;20063;-74
2021/03/14 09:11:44;;;;;;;1.17;0.93;;;6.30;99.90;;;;;;5027698;28;20017;-74
2021/03/14 09:14:29;;;;;;;1.83;0.85;;;6.20;99.90;;;;;;5069808;28;20366;-74
2021/03/14 09:16:58;;;;;;;1.17;0.75;;;6.10;99.90;;;;;;5065482;28;20033;-74
2021/03/14 09:19:27;;;;;;;0.82;0.70;;;6.00;99.90;;;;;;5053839;28;20032;-74
2021/03/14 09:21:55;;;;;;;3.00;0.70;;;6.00;99.90;;;;;;5077365;28;20633;-74
2021/03/14 09:24:29;;;;;;;3.63;0.90;;;6.00;99.90;;;;;;5028575;28;20062;-73
2021/03/14 09:27:07;;;;;;;3.25;0.90;;;6.00;99.90;;;;;;5043046;28;20039;-74
2021/03/14 09:29:50;;;;;;;1.02;0.70;;;5.80;99.90;;;;;;5044816;28;20032;-74
2021/03/14 09:32:34;;;;;;;2.63;1.00;;;5.70;99.90;;;;;;5045789;28;20025;-74
2021/03/14 09:35:15;;;;;;;1.38;0.93;;;5.60;99.90;;;;;;5044257;28;20032;-74
2021/03/14 09:37:42;;;;;;;1.67;0.60;;;5.60;99.90;;;;;;5044201;28;20025;-74
2021/03/14 09:40:25;;;;;;;1.98;0.93;;;5.60;99.90;;;;;;5045569;28;20125;-74
2021/03/14 09:43:03;;;;;;;1.23;0.90;;;5.70;99.90;;;;;;5045244;28;20118;-74
2021/03/14 09:45:39;;;;;;;2.88;0.80;;;5.90;99.90;;;;;;5079078;28;20430;-74
2021/03/14 09:48:16;;;;;;;2.67;1.00;;;6.00;99.90;;;;;;5044826;28;20032;-74
2021/03/14 09:51:05;;;;;;;1.80;0.90;;;6.10;99.90;;;;;;5044652;28;20061;-74
2021/03/14 09:53:37;;;;;;;2.33;1.35;;;6.40;99.90;;;;;;5045505;28;20613;-74
2021/03/14 09:56:11;;;;;;;5.67;1.03;;;6.50;99.90;;;;;;5045204;28;20033;-74
2021/03/14 09:59:02;;;;;;;1.48;0.55;;;6.70;99.90;;;;;;5024940;28;20076;-74
2021/03/14 10:01:31;;;;;;;0.85;0.80;;;6.90;99.90;;;;;;5028560;28;20029;-73
2021/03/14 10:03:58;;;;;;;1.80;0.75;;;7.10;99.90;;;;;;5078744;28;20411;-74
2021/03/14 10:06:39;;;;;;;2.80;0.90;;;7.10;99.90;;;;;;5044181;28;20053;-73
2021/03/14 10:09:23;;;;;;;0.95;0.68;;;7.10;99.90;;;;;;5061383;28;20045;-76
2021/03/14 10:11:54;;;;;;;0.98;0.88;;;7.00;99.90;;;;;;5078009;28;20431;-74
2021/03/14 10:14:21;;;;;;;3.17;0.82;;;6.90;99.90;;;;;;5079169;28;20487;-74
2021/03/14 10:16:48;;;;;;;2.28;0.70;;;6.90;99.90;;;;;;5045697;28;20029;-74
2021/03/14 10:19:20;;;;;;;3.78;0.95;;;6.90;99.90;;;;;;5044976;28;20427;-73
2021/03/14 10:21:46;;;;;;;1.38;0.60;;;6.90;99.90;;;;;;5045713;28;20053;-74
2021/03/14 10:24:27;;;;;;;1.20;0.75;;;6.90;99.90;;;;;;5045335;28;20421;-74
2021/03/14 10:27:21;;;;;;;1.02;0.63;;;6.90;99.90;;;;;;5045394;28;20127;-74
2021/03/14 10:30:17;;;;;;;2.97;0.52;;;6.90;99.90;;;;;;5044779;28;20025;-75
2021/03/14 10:32:49;;;;;;;1.23;0.80;;;6.80;99.90;;;;;;5044732;28;20044;-74
2021/03/14 10:35:24;;;;;;;2.10;0.68;;;6.70;99.90;;;;;;5029940;28;20518;-74
2021/03/14 10:37:55;;;;;;;2.17;1.00;;;6.50;99.90;;;;;;5045302;28;20156;-74
2021/03/14 10:40:27;;;;;;;2.08;0.80;;;6.50;99.90;;;;;;5044869;28;20078;-74
2021/03/14 10:43:25;;;;;;;2.67;0.93;;;6.60;99.90;;;;;;5044680;28;20033;-74
2021/03/14 10:46:02;;;;;;;2.50;1.00;;;6.80;99.90;;;;;;5044545;28;20033;-74
2021/03/14 10:48:29;;;;;;;1.63;0.70;;;7.00;99.90;;;;;;5044986;28;20040;-73
2021/03/14 10:51:05;;;;;;;2.88;0.70;;;7.10;99.90;;;;;;5044262;28;20021;-73
2021/03/14 10:53:35;;;;;;;2.67;0.88;;;7.10;99.90;;;;;;5045085;28;20029;-74
2021/03/14 10:56:07;;;;;;;2.63;1.25;;;7.10;99.90;;;;;;5062243;28;20044;-73
2021/03/14 10:58:41;;;;;;;2.40;1.05;;;7.00;99.90;;;;;;5045290;28;20036;-74
2021/03/14 11:01:31;;;;;;;0.85;0.70;;;7.00;99.90;;;;;;5043711;28;20033;-74
2021/03/14 11:04:04;;;;;;;3.55;0.90;;;7.00;99.90;;;;;;5062121;28;20472;-74
2021/03/14 11:06:31;;;;;;;2.45;1.00;;;7.00;99.90;;;;;;5044108;28;20086;-73
2021/03/14 11:09:05;;;;;;;1.77;1.10;;;7.00;99.90;;;;;;5045265;28;20047;-73
2021/03/14 11:11:43;;;;;;;1.07;0.80;;;7.10;99.90;;;;;;5077951;28;20044;-73
2021/03/14 11:14:30;;;;;;;2.08;1.20;;;7.00;99.90;;;;;;5045390;28;20183;-73
2021/03/14 11:17:16;;;;;;;2.78;0.85;;;7.10;99.90;;;;;;5077648;28;20029;-74
2021/03/14 11:20:08;;;;;;;1.42;0.73;;;7.00;99.90;;;;;;5044042;28;20219;-74
2021/03/14 11:22:42;;;;;;;1.48;0.88;;;7.00;99.90;;;;;;5078148;28;20078;-74
2021/03/14 11:25:12;;;;;;;0.95;0.85;;;7.10;99.90;;;;;;5078474;28;20155;-74
2021/03/14 11:27:38;;;;;;;0.68;0.57;;;7.30;99.90;;;;;;5027805;28;20119;-75
2021/03/14 11:30:05;;;;;;;2.42;0.73;;;7.30;99.90;;;;;;5065000;28;20039;-74
2021/03/14 11:32:31;;;;;;;3.58;1.20;;;7.40;99.90;;;;;;5081486;28;20025;-74
2021/03/14 11:35:11;;;;;;;3.75;0.73;;;7.40;99.90;;;;;;5081912;28;20029;-74
2021/03/14 11:37:55;;;;;;;1.92;0.82;;;7.30;99.90;;;;;;5049150;28;20048;-75
2021/03/14 11:40:37;;;;;;;6.40;0.98;;;7.30;99.90;;;;;;5080824;28;20124;-74
2021/03/14 11:43:24;;;;;;;1.00;0.60;;;7.40;99.90;;;;;;5080978;28;20395;-74
2021/03/14 11:46:04;;;;;;;2.45;0.70;;;7.40;99.90;;;;;;5057457;28;20034;-74
2021/03/14 11:48:30;;;;;;;0.70;0.47;;;7.40;99.90;;;;;;5073137;28;20048;-75
2021/03/14 11:51:03;;;;;;;1.05;0.80;;;7.50;99.90;;;;;;5043852;28;20443;-74
2021/03/14 11:53:29;;;;;;;0.95;0.50;;;7.60;99.90;;;;;;5043025;28;20032;-74
2021/03/14 11:55:59;;;;;;;0.70;0.70;;;7.50;99.90;;;;;;5041874;28;20036;-75
2021/03/14 11:58:33;;;;;;;2.65;0.93;;;7.50;99.90;;;;;;5047154;28;20032;-74
2021/03/14 12:00:59;;;;;;;1.85;0.82;;;7.50;99.90;;;;;;5047055;28;20350;-73
2021/03/14 12:03:26;;;;;;;1.60;0.80;;;7.60;99.90;;;;;;5045997;28;20029;-74
2021/03/14 12:05:57;;;;;;;2.95;0.55;;;7.50;99.90;;;;;;5075449;28;20458;-74
2021/03/14 12:08:31;;;;;;;0.75;0.57;;;7.50;99.90;;;;;;5046846;28;20048;-75
2021/03/14 12:10:57;;;;;;;1.15;0.65;;;7.60;99.90;;;;;;5030539;28;20082;-73
2021/03/14 12:13:32;;;;;;;3.67;1.10;;;7.60;99.90;;;;;;5047459;28;20029;-75
2021/03/14 12:15:57;;;;;;;1.67;0.68;;;7.60;99.90;;;;;;5047126;28;20029;-74
2021/03/14 12:18:23;;;;;;;1.23;0.60;;;7.60;99.90;;;;;;5080463;28;20111;-74
2021/03/14 12:20:57;;;;;;;2.78;0.70;;;7.70;99.90;;;;;;5045203;28;20585;-75
2021/03/14 12:23:30;;;;;;;1.27;0.40;;;7.70;99.90;;;;;;5040283;28;20110;-75
2021/03/14 12:26:08;;;;;;;1.80;0.65;;;7.70;99.90;;;;;;5037932;28;20094;-76
2021/03/14 12:28:39;;;;;;;3.03;0.57;;;7.80;99.90;;;;;;5072048;28;20025;-76
2021/03/14 12:31:05;;;;;;;1.80;0.60;;;7.80;99.90;;;;;;5041293;28;20387;-74
2021/03/14 12:33:35;;;;;;;2.33;0.50;;;7.80;99.90;;;;;;5074731;28;20051;-75
2021/03/14 12:36:00;;;;;;;1.27;0.52;;;7.80;99.90;;;;;;5044336;28;20552;-75
2021/03/14 12:38:43;;;;;;;1.60;0.50;;;7.70;99.90;;;;;;5075615;28;20040;-75
2021/03/14 12:41:09;;;;;;;1.40;0.50;;;7.60;99.90;;;;;;5044383;28;20040;-75
2021/03/14 12:43:35;;;;;;;0.50;0.50;;;7.60;99.90;;;;;;5041572;28;20648;-75
2021/03/14 12:46:01;;;;;;;1.67;0.60;;;7.60;99.90;;;;;;5043685;28;20036;-76
2021/03/14 12:48:27;;;;;;;2.75;0.88;;;7.70;99.90;;;;;;5070882;28;20040;-75
2021/03/14 12:50:58;;;;;;;1.70;0.77;;;7.80;99.90;;;;;;5055673;28;20051;-75
2021/03/14 12:53:28;;;;;;;5.07;0.88;;;7.70;99.90;;;;;;5041043;28;20108;-75
2021/03/14 12:55:56;;;;;;;3.22;0.57;;;7.70;99.90;;;;;;5069815;28;20037;-75
2021/03/14 12:58:22;;;;;;;6.65;0.85;;;7.70;99.90;;;;;;5033364;28;20352;-76
2021/03/14 13:00:53;;;;;;;2.50;0.93;;;7.60;99.90;;;;;;5039603;28;20397;-76
2021/03/14 13:03:19;;;;;;;3.25;0.57;;;7.50;99.90;;;;;;5046887;28;20037;-75
2021/03/14 13:05:45;;;;;;;3.95;0.50;;;7.50;99.90;;;;;;5047915;28;20049;-75
2021/03/14 13:08:11;;;;;;;0.85;0.70;;;7.40;99.90;;;;;;5047037;28;20025;-74
2021/03/14 13:10:37;;;;;;;3.70;0.50;;;7.40;99.90;;;;;;5046786;28;20083;-76
2021/03/14 13:13:04;;;;;;;1.45;0.40;;;7.40;99.90;;;;;;5047795;28;20108;-75
2021/03/14 13:15:30;;;;;;;3.03;0.50;;;7.20;99.90;;;;;;5054928;28;20029;-74